createdAt,value
2022-10-19T00:02:05.415Z,16.96
2022-10-19T00:04:32.077Z,16.91
2022-10-19T00:06:58.827Z,16.87
2022-10-19T00:09:25.379Z,16.78
2022-10-19T00:11:51.992Z,16.73
2022-10-19T00:14:21.753Z,16.83
2022-10-19T00:16:49.423Z,16.82
2022-10-19T00:19:27.226Z,16.66
2022-10-19T00:21:54.143Z,16.53
2022-10-19T00:24:20.886Z,16.62
2022-10-19T00:26:47.825Z,16.51
2022-10-19T00:29:16.076Z,16.54
2022-10-19T00:31:42.824Z,16.46
2022-10-19T00:34:09.864Z,16.42
2022-10-19T00:36:39.024Z,16.26
2022-10-19T00:39:08.632Z,16.34
2022-10-19T00:41:36.322Z,16.34
2022-10-19T00:44:27.479Z,16.28
2022-10-19T00:46:58.277Z,16.36
2022-10-19T00:49:28.245Z,16.34
2022-10-19T00:52:02.520Z,16.41
2022-10-19T00:54:29.670Z,16.28
2022-10-19T00:56:56.715Z,16.22
2022-10-19T00:59:25.198Z,16.22
2022-10-19T01:01:52.655Z,16.09
2022-10-19T01:04:23.683Z,16.20
2022-10-19T01:09:18.034Z,16.06
2022-10-19T01:11:58.277Z,16.13
2022-10-19T01:14:35.755Z,16.10
2022-10-19T01:17:21.098Z,15.99
2022-10-19T01:20:18.745Z,16.02
2022-10-19T01:23:04.959Z,15.94
2022-10-19T01:25:54.990Z,15.75
2022-10-19T01:28:30.425Z,15.83
2022-10-19T01:31:32.455Z,15.83
2022-10-19T01:34:05.083Z,15.78
2022-10-19T01:36:50.907Z,15.69
2022-10-19T01:39:36.889Z,15.58
2022-10-19T01:42:10.421Z,15.65
2022-10-19T01:44:42.997Z,15.75
2022-10-19T01:47:19.031Z,15.80
2022-10-19T01:49:59.020Z,15.73
2022-10-19T01:52:26.043Z,15.52
2022-10-19T01:54:56.517Z,15.50
2022-10-19T01:57:29.533Z,15.46
2022-10-19T01:59:56.849Z,15.52
2022-10-19T02:02:25.160Z,15.39
2022-10-19T02:04:52.890Z,15.40
2022-10-19T02:07:21.289Z,15.38
2022-10-19T02:09:48.022Z,15.44
2022-10-19T02:12:15.869Z,15.33
2022-10-19T02:14:47.842Z,15.41
2022-10-19T02:17:17.829Z,15.25
2022-10-19T02:19:44.355Z,15.30
2022-10-19T02:22:12.676Z,15.30
2022-10-19T02:24:39.365Z,15.17
2022-10-19T02:27:06.713Z,15.14
2022-10-19T02:29:33.976Z,15.39
2022-10-19T02:32:01.346Z,15.38
2022-10-19T02:34:28.086Z,15.32
2022-10-19T02:36:55.284Z,15.26
2022-10-19T02:39:22.160Z,15.19
2022-10-19T02:41:56.241Z,15.17
2022-10-19T02:44:26.478Z,15.19
2022-10-19T02:47:10.457Z,15.37
2022-10-19T02:49:37.869Z,15.27
2022-10-19T02:52:07.095Z,15.21
2022-10-19T02:54:33.777Z,15.04
2022-10-19T02:57:00.883Z,15.11
2022-10-19T02:59:27.553Z,14.99
2022-10-19T03:01:54.100Z,14.97
2022-10-19T03:04:20.658Z,14.81
2022-10-19T03:06:47.297Z,14.80
2022-10-19T03:09:13.879Z,14.66
2022-10-19T03:11:40.445Z,14.73
2022-10-19T03:14:07.057Z,14.62
2022-10-19T03:16:33.658Z,14.48
2022-10-19T03:19:00.223Z,14.36
2022-10-19T03:21:26.781Z,14.33
2022-10-19T03:23:53.390Z,14.15
2022-10-19T03:26:20.041Z,14.08
2022-10-19T03:28:46.764Z,14.09
2022-10-19T03:31:13.363Z,14.02
2022-10-19T03:33:40.202Z,13.91
2022-10-19T03:36:20.930Z,13.95
2022-10-19T03:38:50.182Z,13.85
2022-10-19T03:41:16.849Z,13.74
2022-10-19T03:43:43.558Z,13.67
2022-10-19T03:46:10.270Z,13.59
2022-10-19T03:48:36.853Z,13.64
2022-10-19T03:51:06.291Z,13.57
2022-10-19T03:53:33.439Z,13.42
2022-10-19T03:56:06.496Z,13.44
2022-10-19T03:58:35.443Z,13.33
2022-10-19T04:01:02.470Z,13.17
2022-10-19T04:03:29.177Z,13.11
2022-10-19T04:06:03.142Z,13.13
2022-10-19T04:08:29.840Z,13.09
2022-10-19T04:11:04.992Z,12.99
2022-10-19T04:13:32.990Z,12.90
2022-10-19T04:15:59.945Z,13.03
2022-10-19T04:18:26.741Z,13.02
2022-10-19T04:21:04.777Z,12.85
2022-10-19T04:23:33.762Z,12.87
2022-10-19T04:26:05.945Z,12.75
2022-10-19T04:28:33.777Z,12.79
2022-10-19T04:31:04.238Z,12.80
2022-10-19T04:33:31.214Z,12.75
2022-10-19T04:35:59.379Z,12.77
2022-10-19T04:38:26.334Z,12.79
2022-10-19T04:40:52.974Z,12.88
2022-10-19T04:43:19.521Z,12.75
2022-10-19T04:45:46.062Z,12.70
2022-10-19T04:48:15.030Z,12.73
2022-10-19T04:50:42.154Z,12.67
2022-10-19T04:53:08.776Z,12.65
2022-10-19T04:55:40.785Z,12.64
2022-10-19T04:58:07.322Z,12.63
2022-10-19T05:00:33.981Z,12.69
2022-10-19T05:03:00.662Z,12.62
2022-10-19T05:05:27.265Z,12.71
2022-10-19T05:07:53.830Z,12.56
2022-10-19T05:10:20.485Z,12.58
2022-10-19T05:12:47.110Z,12.49
2022-10-19T05:15:13.666Z,12.47
2022-10-19T05:17:40.286Z,12.52
2022-10-19T05:20:07.520Z,12.52
2022-10-19T05:22:34.138Z,12.63
2022-10-19T05:25:00.680Z,12.71
2022-10-19T05:27:27.366Z,12.58
2022-10-19T05:29:53.954Z,12.75
2022-10-19T05:32:20.526Z,12.78
2022-10-19T05:34:47.131Z,12.76
2022-10-19T05:37:13.726Z,12.83
2022-10-19T05:39:40.342Z,12.88
2022-10-19T05:42:07.070Z,12.87
2022-10-19T05:44:33.757Z,12.90
2022-10-19T05:47:00.595Z,13.00
2022-10-19T05:49:27.169Z,12.91
2022-10-19T05:51:54.424Z,13.13
2022-10-19T05:54:22.777Z,13.10
2022-10-19T05:56:51.680Z,13.21
2022-10-19T05:59:19.818Z,13.31
2022-10-19T06:01:46.700Z,13.38
2022-10-19T06:04:14.979Z,13.53
2022-10-19T06:06:45.485Z,13.42
2022-10-19T06:09:12.444Z,13.57
2022-10-19T06:11:40.778Z,13.68
2022-10-19T06:14:11.116Z,13.73
2022-10-19T06:16:38.098Z,13.84
2022-10-19T06:19:05.452Z,13.84
2022-10-19T06:21:33.347Z,13.95
2022-10-19T06:24:05.121Z,14.13
2022-10-19T06:26:32.962Z,14.11
2022-10-19T06:29:00.887Z,14.29
2022-10-19T06:31:28.769Z,14.19
2022-10-19T06:33:55.980Z,14.37
2022-10-19T06:36:25.088Z,14.40
2022-10-19T06:38:53.210Z,14.49
2022-10-19T06:41:20.134Z,14.58
2022-10-19T06:43:51.134Z,14.59
2022-10-19T06:46:20.613Z,14.82
2022-10-19T06:48:54.502Z,14.73
2022-10-19T06:51:21.973Z,14.84
2022-10-19T06:53:51.688Z,15.07
2022-10-19T06:56:24.731Z,15.11
2022-10-19T06:58:51.902Z,15.17
2022-10-19T07:01:18.687Z,15.29
2022-10-19T07:03:45.458Z,15.34
2022-10-19T07:06:13.178Z,15.33
2022-10-19T07:08:41.440Z,15.34
2022-10-19T07:11:15.426Z,15.27
2022-10-19T07:13:42.098Z,15.40
2022-10-19T07:16:16.028Z,15.53
2022-10-19T07:18:46.516Z,15.40
2022-10-19T07:21:15.111Z,15.53
2022-10-19T07:23:42.861Z,15.53
2022-10-19T07:26:13.144Z,15.57
2022-10-19T07:28:41.526Z,15.59
2022-10-19T07:31:11.150Z,15.68
2022-10-19T07:33:38.063Z,15.58
2022-10-19T07:36:07.668Z,15.55
2022-10-19T07:38:34.882Z,15.65
2022-10-19T07:41:04.208Z,15.82
2022-10-19T07:43:30.802Z,15.90
2022-10-19T07:45:58.996Z,15.99
2022-10-19T07:48:25.635Z,16.00
2022-10-19T07:50:52.218Z,16.03
2022-10-19T07:53:18.938Z,16.07
2022-10-19T07:55:45.547Z,16.22
2022-10-19T07:58:12.111Z,16.44
2022-10-19T08:06:01.421Z,16.84
2022-10-19T08:08:28.559Z,16.78
2022-10-19T08:10:55.666Z,17.05
2022-10-19T08:13:22.313Z,17.05
2022-10-19T08:15:49.146Z,17.02
2022-10-19T08:18:16.972Z,17.20
2022-10-19T08:20:44.282Z,17.10
2022-10-19T08:23:10.847Z,17.36
2022-10-19T08:25:37.515Z,17.29
2022-10-19T08:28:04.122Z,17.73
2022-10-19T08:30:30.869Z,18.07
2022-10-19T08:32:57.487Z,18.27
2022-10-19T08:35:24.078Z,17.73
2022-10-19T08:37:51.076Z,17.72
2022-10-19T08:40:23.602Z,18.03
2022-10-19T08:43:10.152Z,17.59
2022-10-19T08:45:50.400Z,17.81
2022-10-19T08:48:29.087Z,17.59
2022-10-19T08:50:57.221Z,17.66
2022-10-19T08:53:43.550Z,17.62
2022-10-19T08:56:49.969Z,17.60
2022-10-19T08:59:44.800Z,17.82
2022-10-19T09:02:19.032Z,17.50
2022-10-19T09:04:49.658Z,17.30
2022-10-19T09:07:32.561Z,17.40
2022-10-19T09:10:14.803Z,17.43
2022-10-19T09:13:03.262Z,17.14
2022-10-19T09:15:42.435Z,17.42
2022-10-19T09:18:24.748Z,17.45
2022-10-19T09:21:12.060Z,17.50
2022-10-19T09:23:42.085Z,17.60
2022-10-19T09:26:19.524Z,17.60
2022-10-19T09:28:54.919Z,17.58
2022-10-19T09:31:31.847Z,17.71
2022-10-19T09:34:19.243Z,18.19
2022-10-19T09:36:51.668Z,18.07
2022-10-19T09:39:18.806Z,18.39
2022-10-19T09:41:55.008Z,18.60
2022-10-19T09:44:25.704Z,18.71
2022-10-19T09:47:02.878Z,18.91
2022-10-19T09:49:46.628Z,18.54
2022-10-19T09:52:23.024Z,18.53
2022-10-19T09:55:00.319Z,18.86
2022-10-19T09:57:27.039Z,19.05
2022-10-19T09:59:53.639Z,19.15
2022-10-19T10:02:23.710Z,18.97
2022-10-19T10:05:03.506Z,18.67
2022-10-19T10:07:35.916Z,18.76
2022-10-19T10:10:09.939Z,18.93
2022-10-19T10:12:37.719Z,18.89
2022-10-19T10:15:06.562Z,18.27
2022-10-19T10:17:33.855Z,18.12
2022-10-19T10:20:00.400Z,18.02
2022-10-19T10:22:29.834Z,18.26
2022-10-19T10:24:56.937Z,18.44
2022-10-19T10:27:36.733Z,18.63
2022-10-19T10:30:08.878Z,18.77
2022-10-19T10:32:43.259Z,19.24
2022-10-19T10:35:26.344Z,19.30
2022-10-19T10:37:53.199Z,19.03
2022-10-19T10:40:30.737Z,19.17
2022-10-19T10:43:17.838Z,19.26
2022-10-19T10:45:47.645Z,19.16
2022-10-19T10:48:29.580Z,19.16
2022-10-19T10:51:01.085Z,18.92
2022-10-19T10:53:35.477Z,19.01
2022-10-19T10:56:02.628Z,18.97
2022-10-19T10:58:51.300Z,19.05
2022-10-19T11:01:23.506Z,18.97
2022-10-19T11:03:54.485Z,19.12
2022-10-19T11:09:16.004Z,18.87
2022-10-19T11:11:45.858Z,18.90
2022-10-19T11:14:45.889Z,18.96
2022-10-19T11:17:17.626Z,19.04
2022-10-19T11:19:45.146Z,19.31
2022-10-19T11:22:35.983Z,19.68
2022-10-19T11:25:33.881Z,20.06
2022-10-19T11:28:12.588Z,19.70
2022-10-19T11:31:06.831Z,20.15
2022-10-19T11:36:27.148Z,19.81
2022-10-19T11:39:08.934Z,20.02
2022-10-19T11:41:39.451Z,20.18
2022-10-19T11:44:24.414Z,19.93
2022-10-19T11:47:29.902Z,19.82
2022-10-19T11:50:18.222Z,19.42
2022-10-19T11:53:02.751Z,18.92
2022-10-19T11:55:58.897Z,18.93
2022-10-19T11:58:42.461Z,19.19
2022-10-19T12:01:18.708Z,18.86
2022-10-19T12:04:07.066Z,18.84
2022-10-19T12:06:43.773Z,18.96
2022-10-19T12:09:17.188Z,19.02
2022-10-19T12:12:05.630Z,18.98
2022-10-19T12:14:36.700Z,19.22
2022-10-19T12:17:15.933Z,19.15
2022-10-19T12:19:45.150Z,19.42
2022-10-19T12:22:17.323Z,19.40
2022-10-19T12:24:44.020Z,19.15
2022-10-19T12:27:15.737Z,19.56
2022-10-19T12:29:45.770Z,19.58
2022-10-19T12:32:15.705Z,19.41
2022-10-19T12:35:03.743Z,19.68
2022-10-19T12:37:41.237Z,19.44
2022-10-19T12:40:19.126Z,19.74
2022-10-19T12:42:57.597Z,19.74
2022-10-19T12:45:42.914Z,19.92
2022-10-19T12:48:11.098Z,19.74
2022-10-19T12:50:49.758Z,19.71
2022-10-19T12:53:27.957Z,20.04
2022-10-19T12:56:07.387Z,19.91
2022-10-19T12:58:55.551Z,19.76
2022-10-19T13:01:34.391Z,19.90
2022-10-19T13:04:10.695Z,19.62
2022-10-19T13:06:41.828Z,19.34
2022-10-19T13:09:13.143Z,19.43
2022-10-19T13:12:21.948Z,19.28
2022-10-19T13:14:55.488Z,19.10
2022-10-19T13:17:37.245Z,19.27
2022-10-19T13:20:19.057Z,19.36
2022-10-19T13:22:49.706Z,19.34
2022-10-19T13:25:16.153Z,19.19
2022-10-19T13:27:43.715Z,19.19
2022-10-19T13:30:42.300Z,18.95
2022-10-19T13:33:27.249Z,18.99
2022-10-19T13:35:59.882Z,18.99
2022-10-19T13:38:29.665Z,19.12
2022-10-19T13:40:58.043Z,19.00
2022-10-19T13:43:38.835Z,19.01
2022-10-19T13:46:08.175Z,19.14
2022-10-19T13:48:49.941Z,19.02
2022-10-19T13:51:38.065Z,19.04
2022-10-19T13:54:17.798Z,19.03
2022-10-19T13:57:19.629Z,19.24
2022-10-19T14:00:14.501Z,19.25
2022-10-19T14:03:09.367Z,19.25
2022-10-19T14:05:59.741Z,19.10
2022-10-19T14:08:52.047Z,18.91
2022-10-19T14:11:27.921Z,18.43
2022-10-19T14:14:11.398Z,18.52
2022-10-19T14:16:54.463Z,18.35
2022-10-19T14:19:46.209Z,18.53
2022-10-19T14:22:31.244Z,18.66
2022-10-19T14:25:17.704Z,18.54
2022-10-19T14:27:45.877Z,18.52
2022-10-19T14:30:38.608Z,18.28
2022-10-19T14:33:10.367Z,18.53
2022-10-19T14:35:39.263Z,18.22
2022-10-19T14:38:06.681Z,18.09
2022-10-19T14:40:41.041Z,18.21
2022-10-19T14:43:19.542Z,17.91
2022-10-19T14:46:08.638Z,17.81
2022-10-19T14:48:36.690Z,17.36
2022-10-19T14:51:05.521Z,17.22
2022-10-19T14:53:45.929Z,16.99
2022-10-19T14:56:18.660Z,17.04
2022-10-19T14:58:57.265Z,16.94
2022-10-19T15:01:23.971Z,16.55
2022-10-19T15:03:51.042Z,16.51
2022-10-19T15:06:21.720Z,16.47
2022-10-19T15:09:15.475Z,16.22
2022-10-19T15:11:52.709Z,15.82
2022-10-19T15:14:22.170Z,15.51
2022-10-19T15:17:00.263Z,15.31
2022-10-19T15:22:30.613Z,15.02
2022-10-19T15:25:06.549Z,14.95
2022-10-19T15:27:35.558Z,14.90
2022-10-19T15:30:17.225Z,14.76
2022-10-19T15:32:48.985Z,14.71
2022-10-19T15:35:21.812Z,14.43
2022-10-19T15:37:49.550Z,14.39
2022-10-19T15:40:26.227Z,14.28
2022-10-19T15:42:52.999Z,14.20
2022-10-19T15:45:36.991Z,13.95
2022-10-19T15:49:01.451Z,13.88
2022-10-19T15:51:28.366Z,13.88
2022-10-19T15:53:57.719Z,13.72
2022-10-19T15:56:26.599Z,13.76
2022-10-19T15:58:56.183Z,13.68
2022-10-19T16:01:33.323Z,13.47
2022-10-19T16:04:00.045Z,13.47
2022-10-19T16:06:29.317Z,13.44
2022-10-19T16:08:56.386Z,13.28
2022-10-19T16:11:23.383Z,13.32
2022-10-19T16:13:50.326Z,13.28
2022-10-19T16:20:06.583Z,13.06
2022-10-19T16:22:33.535Z,12.86
2022-10-19T16:25:00.201Z,13.00
2022-10-19T16:27:26.872Z,12.82
2022-10-19T16:29:54.527Z,12.84
2022-10-19T19:03:53.788Z,10.93
2022-10-19T19:06:22.682Z,10.87
2022-10-19T19:08:49.627Z,10.80
2022-10-19T19:11:21.715Z,10.78
2022-10-19T19:13:50.127Z,10.72
2022-10-19T19:16:16.725Z,10.75
2022-10-19T19:18:43.573Z,10.82
2022-10-19T19:21:14.942Z,10.88
2022-10-19T19:23:41.664Z,10.89
2022-10-19T19:26:09.321Z,10.95
2022-10-19T19:28:39.259Z,10.95
2022-10-19T19:31:09.126Z,11.18
2022-10-19T19:33:36.062Z,11.06
2022-10-19T19:36:07.166Z,11.09
2022-10-19T19:38:34.503Z,11.09
2022-10-19T19:41:04.552Z,11.11
2022-10-19T19:43:31.933Z,11.18
2022-10-19T19:46:04.539Z,11.30
2022-10-19T19:48:35.383Z,11.30
2022-10-19T19:51:01.934Z,11.28
2022-10-19T19:53:28.538Z,11.30
2022-10-19T19:55:55.062Z,11.33
2022-10-19T19:58:21.703Z,11.51
2022-10-19T20:00:48.286Z,11.50
2022-10-19T20:03:15.827Z,11.52
2022-10-19T20:05:42.514Z,11.48
2022-10-19T20:08:09.607Z,11.61
2022-10-19T20:10:40.336Z,11.57
2022-10-19T20:13:07.140Z,11.57
2022-10-19T20:15:33.752Z,11.56
2022-10-19T20:18:00.530Z,11.46
2022-10-19T20:20:27.069Z,11.47
2022-10-19T20:22:53.734Z,11.65
2022-10-19T20:25:20.277Z,11.57
2022-10-19T20:27:46.880Z,11.56
2022-10-19T20:30:13.429Z,11.51
2022-10-19T20:32:40.092Z,11.50
2022-10-19T20:35:07.532Z,11.53
2022-10-19T20:37:34.536Z,11.48
2022-10-19T20:40:08.148Z,11.46
2022-10-19T20:42:35.276Z,11.74
2022-10-19T20:45:02.036Z,11.64
2022-10-19T20:47:28.665Z,11.53
2022-10-19T20:49:55.282Z,11.49
2022-10-19T20:52:21.923Z,11.59
2022-10-19T20:54:49.284Z,11.61
2022-10-19T20:57:16.034Z,11.58
2022-10-19T20:59:43.975Z,11.56
2022-10-19T21:02:10.948Z,11.59
2022-10-19T21:04:37.596Z,11.75
2022-10-19T21:07:05.019Z,11.65
2022-10-19T21:09:31.952Z,11.58
2022-10-19T21:11:58.948Z,11.56
2022-10-19T21:14:28.611Z,11.58
2022-10-19T21:16:59.111Z,11.69
2022-10-19T21:19:58.949Z,11.50
2022-10-19T21:22:25.692Z,11.49
2022-10-19T21:24:52.391Z,11.34
2022-10-19T21:27:19.116Z,11.38
2022-10-19T21:29:45.707Z,11.41
2022-10-19T21:32:12.319Z,11.42
2022-10-19T21:34:38.898Z,11.40
2022-10-19T21:37:05.624Z,11.48
2022-10-19T21:39:32.290Z,11.39
2022-10-19T21:41:58.898Z,11.33
2022-10-19T21:44:25.553Z,11.30
2022-10-19T21:46:52.290Z,11.36
2022-10-19T21:49:19.068Z,11.30
2022-10-19T21:51:50.856Z,11.25
2022-10-19T21:54:19.404Z,11.24
2022-10-19T21:56:46.622Z,11.41
2022-10-19T21:59:13.512Z,11.28
2022-10-19T22:01:41.444Z,11.27
2022-10-19T22:04:12.307Z,11.32
2022-10-19T22:06:39.584Z,11.24
2022-10-19T22:09:08.935Z,11.25
2022-10-19T22:11:35.649Z,11.26
2022-10-19T22:14:03.854Z,11.24
2022-10-19T22:16:31.484Z,11.21
2022-10-19T22:18:58.370Z,11.08
2022-10-19T22:21:28.457Z,11.08
2022-10-19T22:24:00.743Z,11.07
2022-10-19T22:26:32.252Z,11.06
2022-10-19T22:29:00.324Z,11.07
2022-10-19T22:31:27.907Z,10.92
2022-10-19T22:33:54.719Z,10.80
2022-10-19T22:36:21.372Z,10.81
2022-10-19T22:38:48.126Z,10.79
2022-10-19T22:41:14.852Z,10.76
2022-10-19T22:43:41.494Z,10.73
2022-10-19T22:46:08.270Z,10.72
2022-10-19T22:48:34.948Z,10.74
2022-10-19T22:51:01.555Z,10.74
2022-10-19T22:53:28.179Z,10.66
2022-10-19T22:55:54.781Z,10.48
2022-10-19T22:58:21.309Z,10.50
2022-10-19T23:01:53.610Z,10.48
2022-10-19T23:04:21.292Z,10.48
2022-10-19T23:06:48.355Z,10.25
2022-10-19T23:09:14.881Z,10.14
2022-10-19T23:11:41.658Z,10.15
2022-10-19T23:14:08.275Z,10.12
2022-10-19T23:16:34.833Z,10.14
2022-10-19T23:19:01.382Z,10.10
2022-10-19T23:21:28.029Z,10.08
2022-10-19T23:23:54.579Z,10.04
2022-10-19T23:26:21.707Z,10.05
2022-10-19T23:28:49.849Z,9.96
2022-10-19T23:31:19.065Z,9.91
2022-10-19T23:33:46.603Z,9.84
2022-10-19T23:36:18.634Z,9.92
2022-10-19T23:38:46.470Z,9.76
2022-10-19T23:41:13.770Z,9.64
2022-10-19T23:43:41.007Z,9.54
2022-10-19T23:46:07.744Z,9.53
2022-10-19T23:48:34.668Z,9.49
2022-10-19T23:51:10.385Z,9.47
2022-10-19T23:53:41.039Z,9.42
2022-10-19T23:56:14.078Z,9.38
2022-10-19T23:58:40.878Z,9.37
